Time;durP1;ratioP1;P1;durP2;ratioP2;P2;SDS_P1;SDS_P2;PMS_P1;PMS_P2;Temp;Humidity;BMP_temperature;BMP_pressure;BME280_temperature;BME280_humidity;BME280_pressure;Samples;Min_cycle;Max_cycle;Signal;HPM_P1;HPM_P2
2022/02/10 00:06:37;;;;;;;6.13;5.50;;;13.60;99.90;;;;;;5028340;28;20565;-62
2022/02/10 00:15:32;;;;;;;5.00;4.63;;;13.60;99.90;;;;;;4997704;28;20493;-62
2022/02/10 00:18:11;;;;;;;6.33;4.80;;;13.60;99.90;;;;;;5038823;28;20450;-61
2022/02/10 00:20:51;;;;;;;7.37;5.33;;;13.50;99.90;;;;;;5034513;28;20520;-61
2022/02/10 00:23:38;;;;;;;5.70;4.43;;;13.50;99.90;;;;;;5041628;28;20616;-62
2022/02/10 00:34:51;;;;;;;6.83;5.13;;;13.20;99.90;;;;;;5001818;28;20892;-61
2022/02/10 00:37:36;;;;;;;5.37;4.90;;;13.20;99.90;;;;;;5002239;28;20451;-61
2022/02/10 00:40:11;;;;;;;7.53;4.67;;;13.30;99.90;;;;;;5003466;28;20443;-61
2022/02/10 00:42:42;;;;;;;8.93;5.77;;;13.20;99.90;;;;;;4980017;28;20444;-61
2022/02/10 00:45:13;;;;;;;7.80;6.00;;;13.20;99.90;;;;;;4976038;28;20468;-61
2022/02/10 00:47:53;;;;;;;5.90;5.40;;;13.20;99.90;;;;;;4979007;28;20461;-61
2022/02/10 00:50:26;;;;;;;6.10;5.50;;;13.10;99.90;;;;;;4980864;28;20464;-62
2022/02/10 00:53:05;;;;;;;8.53;6.60;;;13.10;99.90;;;;;;4978408;28;20851;-61
2022/02/10 00:55:38;;;;;;;6.53;5.30;;;13.10;99.90;;;;;;5014855;28;20489;-62
2022/02/10 00:58:12;;;;;;;6.90;5.77;;;13.00;99.90;;;;;;5005221;28;20452;-61
2022/02/10 01:31:39;;;;;;;8.60;6.47;;;11.80;99.90;;;;;;5043485;28;20529;-63
2022/02/10 01:34:10;;;;;;;9.40;5.63;;;11.70;99.90;;;;;;5059002;27;20456;-61
2022/02/10 01:36:41;;;;;;;7.53;5.40;;;11.60;99.90;;;;;;5033956;28;20942;-61
2022/02/10 01:39:12;;;;;;;8.30;5.30;;;11.50;99.90;;;;;;5029303;28;20495;-61
2022/02/10 02:04:21;;;;;;;5.80;5.17;;;10.70;99.90;;;;;;4954996;29;20461;-65
2022/02/10 02:06:55;;;;;;;6.10;4.73;;;10.60;99.90;;;;;;4951544;29;20449;-67
2022/02/10 02:09:26;;;;;;;7.03;5.10;;;10.60;99.90;;;;;;4957367;28;20457;-66
2022/02/10 02:11:57;;;;;;;5.93;5.33;;;10.50;99.90;;;;;;4951025;29;20460;-67
2022/02/10 02:14:30;;;;;;;6.43;5.83;;;10.40;99.90;;;;;;4944864;28;20516;-66
2022/02/10 02:17:06;;;;;;;7.20;6.07;;;10.40;99.90;;;;;;4957032;29;20449;-64
2022/02/10 02:19:37;;;;;;;6.23;5.63;;;10.30;99.90;;;;;;4960750;28;20456;-66
2022/02/10 02:22:13;;;;;;;10.60;5.40;;;10.30;99.90;;;;;;4953218;28;20448;-65
2022/02/10 02:24:44;;;;;;;6.23;5.40;;;10.20;99.90;;;;;;4953167;29;20847;-61
2022/02/10 02:27:18;;;;;;;7.67;5.90;;;10.20;99.90;;;;;;4959627;28;20599;-65
2022/02/10 02:29:58;;;;;;;8.30;5.90;;;10.20;99.90;;;;;;4942749;29;20844;-62
2022/02/10 02:32:35;;;;;;;6.33;5.73;;;10.10;99.90;;;;;;4958275;28;20451;-60
2022/02/10 02:35:26;;;;;;;8.23;6.47;;;10.10;99.90;;;;;;4999574;28;20491;-60
2022/02/10 02:38:21;;;;;;;8.80;6.10;;;10.00;99.90;;;;;;5109532;27;20463;-60
2022/02/10 03:06:20;;;;;;;8.83;7.20;;;9.50;99.90;;;;;;5060646;28;20267;-60
2022/02/10 03:08:54;;;;;;;9.20;7.27;;;9.40;99.90;;;;;;5003756;28;20443;-60
2022/02/10 03:11:27;;;;;;;13.90;7.53;;;9.40;99.90;;;;;;5021446;28;20453;-60
2022/02/10 03:14:05;;;;;;;9.07;8.17;;;9.40;99.90;;;;;;5008161;28;20455;-61
2022/02/10 03:17:04;;;;;;;10.07;8.60;;;9.30;99.90;;;;;;5028992;28;20561;-60
2022/02/10 03:19:53;;;;;;;10.57;9.53;;;9.30;99.90;;;;;;5028447;28;20204;-60
2022/02/10 03:22:43;;;;;;;12.73;10.23;;;9.30;99.90;;;;;;5003586;28;20472;-61
2022/02/10 04:05:34;;;;;;;30.50;21.58;;;8.70;99.90;;;;;;4915434;28;20207;-64
2022/02/10 04:08:25;;;;;;;36.58;20.75;;;8.70;99.90;;;;;;4918123;28;20206;-61
2022/02/10 04:13:57;;;;;;;31.55;22.17;;;8.60;99.90;;;;;;4993014;28;20449;-62
2022/02/10 04:16:34;;;;;;;33.45;24.02;;;8.50;99.90;;;;;;4981676;28;20242;-62
2022/02/10 04:19:45;;;;;;;35.58;23.42;;;8.50;99.90;;;;;;4985375;28;20197;-63
2022/02/10 04:22:25;;;;;;;33.92;22.60;;;8.50;99.90;;;;;;4983995;28;20346;-64
2022/02/10 04:25:18;;;;;;;28.67;21.42;;;8.40;99.90;;;;;;4981685;28;20217;-62
2022/02/10 04:28:06;;;;;;;25.80;19.93;;;8.40;99.90;;;;;;4994553;28;20200;-63
2022/02/10 04:31:01;;;;;;;27.83;19.65;;;8.30;99.90;;;;;;4988728;28;20451;-62
2022/02/10 04:53:52;;;;;;;22.20;18.23;;;8.10;99.90;;;;;;5056615;27;20195;-63
2022/02/10 04:56:34;;;;;;;22.17;17.50;;;8.10;99.90;;;;;;5071739;27;20257;-63
2022/02/10 04:59:20;;;;;;;22.23;17.65;;;8.00;99.90;;;;;;5070117;27;20266;-61
2022/02/10 05:02:14;;;;;;;21.13;16.45;;;8.10;99.90;;;;;;5031408;27;20191;-61
2022/02/10 05:05:35;;;;;;;19.60;17.08;;;8.00;99.90;;;;;;5045851;27;20276;-62
2022/02/10 05:08:16;;;;;;;22.65;16.80;;;7.90;99.90;;;;;;5040366;28;20286;-62
2022/02/10 05:22:41;;;;;;;21.48;17.85;;;7.80;99.90;;;;;;4991030;28;20321;-60
2022/02/10 05:33:46;;;;;;;20.75;17.13;;;7.60;99.90;;;;;;5017067;28;20591;-60
2022/02/10 05:36:21;;;;;;;20.30;17.58;;;7.60;99.90;;;;;;5041650;28;20232;-59
2022/02/10 05:38:59;;;;;;;21.20;16.88;;;7.60;99.90;;;;;;4983200;28;20208;-59
2022/02/10 05:44:35;;;;;;;26.05;18.50;;;7.50;99.90;;;;;;5001919;28;20190;-60
2022/02/10 05:50:33;;;;;;;21.05;16.63;;;7.40;99.90;;;;;;5015352;28;20205;-60
2022/02/10 05:53:13;;;;;;;20.42;18.17;;;7.40;99.90;;;;;;5039936;28;20198;-62
2022/02/10 05:55:51;;;;;;;21.63;18.17;;;7.30;99.90;;;;;;5035956;28;20207;-60
2022/02/10 05:58:29;;;;;;;23.08;20.15;;;7.30;99.90;;;;;;5079085;28;20205;-59
2022/02/10 06:49:16;;;;;;;29.83;24.88;;;6.80;99.90;;;;;;5041470;27;21729;-61
2022/02/10 06:51:54;;;;;;;29.98;25.08;;;6.80;99.90;;;;;;5039752;28;20211;-62
2022/02/10 06:54:41;;;;;;;33.53;28.65;;;6.80;99.90;;;;;;5053143;27;20634;-62
2022/02/10 07:05:49;;;;;;;27.17;22.05;;;6.60;99.90;;;;;;5040869;28;20209;-61
2022/02/10 07:08:42;;;;;;;28.80;24.48;;;6.60;99.90;;;;;;5051843;27;20200;-62
2022/02/10 07:14:36;;;;;;;26.13;22.80;;;6.60;99.90;;;;;;4994646;27;20694;-61
2022/02/10 07:17:24;;;;;;;29.52;24.52;;;6.50;99.90;;;;;;5042515;28;20236;-62
2022/02/10 07:51:19;;;;;;;23.35;20.90;;;6.20;99.90;;;;;;5007759;28;20214;-61
2022/02/10 07:53:58;;;;;;;26.70;22.83;;;6.10;99.90;;;;;;5019517;28;20202;-61
2022/02/10 07:56:47;;;;;;;26.55;23.55;;;6.10;99.90;;;;;;5038771;28;20215;-61
2022/02/10 08:50:24;;;;;;;25.67;20.85;;;5.60;99.90;;;;;;5024514;28;20672;-62
2022/02/10 08:55:57;;;;;;;27.85;21.10;;;5.60;99.90;;;;;;5022943;28;20210;-61
2022/02/10 09:01:28;;;;;;;25.23;22.52;;;5.60;99.90;;;;;;5027233;28;20202;-61
2022/02/10 09:04:18;;;;;;;25.05;22.40;;;5.60;99.90;;;;;;5022495;28;20227;-62
2022/02/10 09:10:07;;;;;;;24.40;20.45;;;5.50;99.90;;;;;;5051195;28;20204;-61
2022/02/10 09:13:02;;;;;;;25.42;21.70;;;5.40;99.90;;;;;;5018746;27;20213;-62
2022/02/10 09:18:50;;;;;;;27.67;22.73;;;5.40;99.90;;;;;;5061948;27;20264;-61
2022/02/10 09:55:49;;;;;;;24.40;20.20;;;5.10;99.90;;;;;;5099843;28;20609;-61
2022/02/10 10:13:22;;;;;;;20.17;17.67;;;5.10;99.90;;;;;;5033663;28;20241;-61
2022/02/10 10:16:04;;;;;;;20.05;17.92;;;5.20;99.90;;;;;;5039001;28;20232;-61
2022/02/10 10:18:51;;;;;;;23.17;18.50;;;5.30;99.90;;;;;;5039708;28;20843;-60
2022/02/10 10:21:36;;;;;;;23.55;18.58;;;5.50;99.90;;;;;;5040289;28;20197;-60
2022/02/10 10:24:22;;;;;;;18.98;16.98;;;5.60;99.90;;;;;;5036769;28;20198;-61
2022/02/10 10:49:55;;;;;;;22.17;17.60;;;6.00;99.90;;;;;;5002139;28;20778;-61
2022/02/10 10:55:29;;;;;;;29.75;17.00;;;6.00;99.90;;;;;;5009122;28;20252;-61
2022/02/10 10:58:01;;;;;;;18.45;16.10;;;6.00;99.90;;;;;;5011244;28;20725;-62
2022/02/10 11:03:52;;;;;;;18.35;16.45;;;5.90;99.90;;;;;;5007084;28;20667;-61
2022/02/10 11:38:22;;;;;;;18.70;16.70;;;5.20;99.90;;;;;;5102382;27;20244;-60
2022/02/10 12:39:56;;;;;;;17.30;15.50;;;4.30;99.90;;;;;;5026783;27;20230;-60
2022/02/10 13:24:56;;;;;;;16.30;14.55;;;4.70;99.90;;;;;;5079947;28;20356;-59
2022/02/10 14:13:17;;;;;;;24.55;17.25;;;6.50;99.90;;;;;;5011974;28;20202;-60
2022/02/10 14:18:35;;;;;;;22.63;18.33;;;6.50;99.90;;;;;;5048375;27;20231;-60
2022/02/10 14:21:14;;;;;;;22.05;17.20;;;6.60;99.90;;;;;;5111483;27;20201;-60
2022/02/10 14:26:49;;;;;;;20.00;17.15;;;6.60;99.90;;;;;;5113475;28;20633;-59
2022/02/10 14:29:20;;;;;;;24.95;19.13;;;6.70;99.90;;;;;;5049301;28;20310;-60
2022/02/10 14:31:53;;;;;;;24.20;17.92;;;6.80;99.90;;;;;;5065403;28;20252;-59
2022/02/10 14:34:27;;;;;;;20.77;16.20;;;6.80;99.90;;;;;;5051838;27;20207;-60
2022/02/10 14:37:16;;;;;;;18.52;15.85;;;6.80;99.90;;;;;;5051902;28;20209;-60
2022/02/10 14:40:05;;;;;;;20.90;16.58;;;6.90;99.90;;;;;;5087936;28;20371;-59
2022/02/10 16:18:52;;;;;;;45.20;20.67;;;7.40;99.90;;;;;;5113274;28;20227;-63
2022/02/10 16:21:38;;;;;;;857.13;153.93;;;7.50;99.90;;;;;;5119407;28;20227;-65
2022/02/10 16:24:18;;;;;;;1214.15;228.35;;;7.70;99.90;;;;;;5122617;28;20226;-59
2022/02/10 16:26:57;;;;;;;651.95;116.82;;;7.80;99.90;;;;;;5118997;28;20196;-65
2022/02/10 16:29:32;;;;;;;1999.90;693.15;;;7.80;99.90;;;;;;5130013;28;20192;-63
2022/02/10 16:32:03;;;;;;;1874.43;334.15;;;7.80;99.90;;;;;;5135195;27;20199;-66
2022/02/10 16:34:40;;;;;;;36.75;21.45;;;7.60;99.90;;;;;;5125277;28;20240;-67
2022/02/10 16:37:17;;;;;;;35.55;20.60;;;7.80;99.90;;;;;;5119360;28;20238;-65
2022/02/10 16:39:53;;;;;;;32.15;19.08;;;7.60;99.90;;;;;;5125156;27;20287;-63
2022/02/10 16:42:29;;;;;;;171.35;44.65;;;7.60;99.90;;;;;;5107043;28;20197;-66
2022/02/10 16:45:07;;;;;;;1999.90;657.22;;;7.60;99.90;;;;;;5105819;28;20203;-64
2022/02/10 16:47:43;;;;;;;33.35;19.55;;;7.80;99.90;;;;;;5102523;28;20617;-64
2022/02/10 16:50:19;;;;;;;65.40;26.40;;;8.00;99.90;;;;;;5087493;28;20878;-62
2022/02/10 16:53:00;;;;;;;707.78;129.07;;;8.00;99.90;;;;;;5084528;28;20197;-61
2022/02/10 16:55:45;;;;;;;852.33;164.27;;;8.00;99.90;;;;;;5090071;28;20272;-64
2022/02/10 16:58:32;;;;;;;27.77;19.13;;;8.00;99.90;;;;;;5085731;28;20287;-60
2022/02/10 17:01:30;;;;;;;31.15;17.55;;;7.90;99.90;;;;;;5088430;28;21980;-59
2022/02/10 17:21:34;;;;;;;25.02;15.85;;;8.30;99.90;;;;;;5074961;28;20224;-60
2022/02/10 17:27:03;;;;;;;25.23;15.63;;;8.30;99.90;;;;;;5072055;28;20411;-60
2022/02/10 17:30:08;;;;;;;25.52;15.10;;;8.20;99.90;;;;;;5064201;28;20205;-60
2022/02/10 17:32:49;;;;;;;24.55;14.38;;;8.10;99.90;;;;;;5075747;28;20232;-61
2022/02/10 17:41:41;;;;;;;30.92;18.10;;;8.40;99.90;;;;;;5042724;28;20309;-60
2022/02/10 17:52:58;;;;;;;20.77;14.25;;;8.40;99.90;;;;;;5041737;28;20642;-62
2022/02/10 17:55:29;;;;;;;401.10;77.27;;;8.40;99.90;;;;;;5052311;28;20226;-64
2022/02/10 17:58:00;;;;;;;25.08;15.35;;;8.50;99.90;;;;;;5041998;28;20480;-62
2022/02/10 18:00:31;;;;;;;26.20;14.90;;;8.60;99.90;;;;;;5046653;28;20197;-68
2022/02/10 18:03:02;;;;;;;271.95;52.33;;;8.80;99.90;;;;;;5051897;28;20202;-62
2022/02/10 18:08:25;;;;;;;23.67;16.20;;;8.80;99.90;;;;;;5057466;28;20202;-64
2022/02/10 18:13:54;;;;;;;22.30;15.07;;;8.90;99.90;;;;;;5055213;28;20247;-61
2022/02/10 18:16:29;;;;;;;24.20;15.43;;;9.00;99.90;;;;;;5061955;28;20192;-61
2022/02/10 18:19:06;;;;;;;21.03;16.00;;;9.10;99.90;;;;;;5099149;28;20489;-61
2022/02/10 18:22:05;;;;;;;21.67;15.10;;;9.20;99.90;;;;;;5103076;28;20438;-61
2022/02/10 18:24:53;;;;;;;21.15;15.55;;;9.10;99.90;;;;;;5096990;28;21787;-61
2022/02/10 18:27:34;;;;;;;270.87;53.17;;;9.20;99.90;;;;;;5068380;28;20308;-61
2022/02/10 18:30:20;;;;;;;21.00;16.60;;;9.20;99.90;;;;;;5069221;28;20935;-61
2022/02/10 19:02:14;;;;;;;21.03;14.43;;;9.20;99.90;;;;;;4938885;29;20442;-62
2022/02/10 19:07:50;;;;;;;17.92;13.88;;;9.30;99.90;;;;;;4937411;29;20449;-62
2022/02/10 19:10:24;;;;;;;15.13;12.55;;;9.30;99.90;;;;;;4956043;28;20216;-62
2022/02/10 19:12:57;;;;;;;17.20;12.27;;;9.60;99.90;;;;;;5032265;28;20288;-60
2022/02/10 19:15:34;;;;;;;19.07;13.50;;;9.70;99.90;;;;;;5053650;28;20453;-61
2022/02/10 19:18:07;;;;;;;15.80;13.10;;;9.60;99.90;;;;;;5044134;28;20463;-62
2022/02/10 19:20:39;;;;;;;16.43;12.93;;;9.60;99.90;;;;;;5048034;28;20460;-60
2022/02/10 19:23:10;;;;;;;18.20;13.67;;;9.60;99.90;;;;;;5040338;28;20792;-62
2022/02/10 19:25:41;;;;;;;17.43;13.60;;;9.70;99.90;;;;;;5040945;28;20475;-66
2022/02/10 19:28:12;;;;;;;17.60;15.73;;;9.70;99.90;;;;;;5039193;28;20461;-65
2022/02/10 19:30:46;;;;;;;17.10;14.07;;;9.80;99.90;;;;;;5047964;28;20460;-63
2022/02/10 19:33:17;;;;;;;18.17;14.73;;;9.70;99.90;;;;;;5059087;28;20538;-61
2022/02/10 19:35:51;;;;;;;14.80;12.70;;;9.70;99.90;;;;;;5086744;28;20509;-60
2022/02/10 19:38:24;;;;;;;18.30;15.20;;;9.70;99.90;;;;;;5081805;28;20477;-61
2022/02/10 19:40:55;;;;;;;18.70;15.53;;;9.70;99.90;;;;;;5088397;28;20510;-62
2022/02/10 19:43:48;;;;;;;17.10;13.80;;;9.70;99.90;;;;;;5078365;28;20493;-61
2022/02/10 19:46:20;;;;;;;18.17;13.63;;;9.80;99.90;;;;;;5084141;28;20515;-60
2022/02/10 19:48:51;;;;;;;16.70;13.90;;;9.80;99.90;;;;;;5090956;28;20560;-62
2022/02/10 19:51:22;;;;;;;14.27;12.18;;;9.70;99.90;;;;;;5081875;28;20444;-63
2022/02/10 19:53:55;;;;;;;17.23;13.30;;;9.80;99.90;;;;;;5081936;28;20275;-61
2022/02/10 19:56:28;;;;;;;15.33;12.50;;;9.90;99.90;;;;;;5083353;28;20922;-62
2022/02/10 19:59:02;;;;;;;17.43;12.83;;;10.00;99.90;;;;;;5084847;28;20623;-63
2022/02/10 20:01:35;;;;;;;15.63;13.33;;;10.10;99.90;;;;;;5089670;28;20505;-63
2022/02/10 20:04:09;;;;;;;14.33;12.83;;;10.10;99.90;;;;;;5081993;28;20473;-63
2022/02/10 20:06:41;;;;;;;12.57;11.10;;;10.20;99.90;;;;;;5089218;28;20767;-62
2022/02/10 20:09:13;;;;;;;16.77;13.77;;;10.20;99.90;;;;;;5095671;28;20851;-63
2022/02/10 20:11:46;;;;;;;17.20;13.30;;;10.20;99.90;;;;;;5087509;28;20451;-63
2022/02/10 20:14:17;;;;;;;17.03;12.67;;;10.30;99.90;;;;;;5085567;28;20479;-63
2022/02/10 20:16:49;;;;;;;16.37;13.00;;;10.30;99.90;;;;;;5084087;28;21255;-62
2022/02/10 20:19:20;;;;;;;17.40;14.70;;;10.60;99.90;;;;;;5091182;28;20613;-62
2022/02/10 20:21:51;;;;;;;16.33;13.60;;;10.70;99.90;;;;;;5092166;28;20474;-61
2022/02/10 20:24:22;;;;;;;16.40;13.10;;;10.80;99.90;;;;;;5081464;28;20466;-60
2022/02/10 20:26:53;;;;;;;16.43;14.00;;;10.90;99.90;;;;;;5089067;28;20958;-61
2022/02/10 20:29:24;;;;;;;15.13;12.27;;;11.10;99.90;;;;;;5084786;28;20461;-61
2022/02/10 20:31:56;;;;;;;14.70;12.67;;;11.20;99.90;;;;;;5094149;28;20456;-61
2022/02/10 20:34:29;;;;;;;17.13;12.70;;;11.30;99.90;;;;;;5089084;28;20538;-62
2022/02/10 20:37:03;;;;;;;18.50;13.83;;;11.40;99.90;;;;;;5085205;28;20538;-63
2022/02/10 20:39:34;;;;;;;14.57;12.90;;;11.50;99.90;;;;;;5094604;28;20477;-63
2022/02/10 20:42:10;;;;;;;19.93;15.63;;;11.50;99.90;;;;;;5090065;28;20482;-62
2022/02/10 20:44:44;;;;;;;16.23;13.90;;;11.50;99.90;;;;;;5087166;28;20946;-64
2022/02/10 20:47:19;;;;;;;21.10;14.73;;;11.60;99.90;;;;;;5096436;28;20460;-66
2022/02/10 20:49:51;;;;;;;15.23;13.40;;;11.70;99.90;;;;;;5085248;28;20484;-63
2022/02/10 20:52:22;;;;;;;18.37;15.50;;;11.60;99.90;;;;;;5093285;28;20447;-62
2022/02/10 20:54:54;;;;;;;18.53;13.10;;;11.60;99.90;;;;;;5098134;28;20448;-63
2022/02/10 20:57:25;;;;;;;15.80;14.20;;;11.40;99.90;;;;;;5091793;28;20943;-62
2022/02/10 20:59:56;;;;;;;17.03;13.53;;;11.20;99.90;;;;;;5088991;28;21011;-62
2022/02/10 21:02:33;;;;;;;14.80;13.20;;;11.40;99.90;;;;;;5097546;28;20455;-61
2022/02/10 21:05:21;;;;;;;16.20;13.10;;;11.80;99.90;;;;;;5095601;28;20850;-62
2022/02/10 21:08:04;;;;;;;14.53;13.07;;;12.40;99.90;;;;;;5103744;28;20447;-65
2022/02/10 21:10:36;;;;;;;15.27;12.50;;;12.60;99.90;;;;;;5094875;28;20519;-63
2022/02/10 21:13:11;;;;;;;13.80;11.57;;;12.60;99.90;;;;;;5096790;28;20999;-62
2022/02/10 21:15:45;;;;;;;14.50;12.53;;;12.80;99.90;;;;;;5086066;28;21008;-63
2022/02/10 21:18:19;;;;;;;14.67;13.10;;;13.00;99.90;;;;;;5089508;28;20458;-61
2022/02/10 21:20:55;;;;;;;14.00;11.50;;;13.20;99.90;;;;;;5084901;28;20490;-62
2022/02/10 21:23:30;;;;;;;13.30;11.90;;;13.00;99.90;;;;;;5083959;28;20461;-61
2022/02/10 21:26:01;;;;;;;12.27;10.90;;;13.00;99.90;;;;;;5088647;28;20442;-63
2022/02/10 21:28:35;;;;;;;13.73;12.23;;;12.90;99.90;;;;;;5081875;28;20439;-63
2022/02/10 21:31:10;;;;;;;12.63;11.37;;;13.10;99.90;;;;;;5085825;28;20455;-61
2022/02/10 21:33:57;;;;;;;13.90;12.40;;;13.00;99.90;;;;;;5082457;28;20558;-62
2022/02/10 21:39:33;;;;;;;15.37;12.10;;;13.00;99.90;;;;;;5096941;28;20474;-62
2022/02/10 21:48:08;;;;;;;14.93;12.87;;;13.00;99.90;;;;;;5089553;28;20451;-61
2022/02/10 21:59:32;;;;;;;12.83;11.43;;;12.80;99.90;;;;;;5085874;28;20435;-60
2022/02/10 22:11:01;;;;;;;16.80;11.90;;;12.80;99.90;;;;;;5083571;28;20538;-61
2022/02/10 22:16:49;;;;;;;12.13;10.93;;;12.80;99.90;;;;;;5092594;28;20458;-61
2022/02/10 22:19:22;;;;;;;13.83;12.20;;;12.80;99.90;;;;;;5091890;28;20466;-61
2022/02/10 22:21:55;;;;;;;12.97;11.60;;;12.80;99.90;;;;;;5092148;28;20609;-61
2022/02/10 22:24:28;;;;;;;12.17;10.67;;;12.80;99.90;;;;;;5087127;28;20621;-60
2022/02/10 22:26:58;;;;;;;12.20;10.83;;;12.70;99.90;;;;;;5075476;28;20587;-61
2022/02/10 22:29:33;;;;;;;11.53;10.43;;;12.60;99.90;;;;;;5080820;28;20446;-60
2022/02/10 22:32:15;;;;;;;12.20;11.00;;;12.60;99.90;;;;;;5093556;28;20450;-61
2022/02/10 22:34:51;;;;;;;12.70;11.40;;;12.60;99.90;;;;;;5092519;28;20462;-61
2022/02/10 22:37:23;;;;;;;14.10;12.07;;;12.60;99.90;;;;;;5083908;28;20479;-60
2022/02/10 22:39:55;;;;;;;12.13;10.93;;;12.60;99.90;;;;;;5084730;28;20531;-61
2022/02/10 22:42:46;;;;;;;13.50;11.90;;;12.60;99.90;;;;;;5082411;28;20540;-60
2022/02/10 22:45:18;;;;;;;14.40;11.97;;;12.60;99.90;;;;;;5083263;28;20450;-61
2022/02/10 22:47:48;;;;;;;13.70;12.30;;;12.50;99.90;;;;;;5083707;28;20450;-60
2022/02/10 22:50:20;;;;;;;12.93;11.63;;;12.50;99.90;;;;;;5063359;28;20987;-60
2022/02/10 22:52:51;;;;;;;11.90;10.70;;;12.70;99.90;;;;;;5082680;28;20442;-61
2022/02/10 22:55:24;;;;;;;14.37;11.63;;;12.70;99.90;;;;;;5093795;28;20455;-61
2022/02/10 22:57:54;;;;;;;13.63;11.50;;;12.60;99.90;;;;;;5083365;28;20452;-61
2022/02/10 23:00:46;;;;;;;12.17;10.87;;;12.60;99.90;;;;;;5082569;28;20554;-60
2022/02/10 23:03:19;;;;;;;13.70;12.20;;;12.60;99.90;;;;;;5081746;28;20443;-61
2022/02/10 23:05:50;;;;;;;13.87;12.50;;;12.60;99.90;;;;;;5094732;28;20473;-60
2022/02/10 23:08:21;;;;;;;13.40;12.00;;;12.50;99.90;;;;;;5086844;28;20459;-60
2022/02/10 23:10:54;;;;;;;13.03;11.70;;;12.60;99.90;;;;;;5082510;28;20462;-62
2022/02/10 23:13:29;;;;;;;14.00;12.07;;;12.60;99.90;;;;;;5083530;28;20483;-61
2022/02/10 23:16:01;;;;;;;13.87;12.50;;;12.70;99.90;;;;;;5084515;28;20505;-61
2022/02/10 23:18:34;;;;;;;14.20;12.70;;;12.60;99.90;;;;;;5082408;28;20440;-60
2022/02/10 23:21:06;;;;;;;13.90;12.23;;;12.50;99.90;;;;;;5083176;28;20475;-61
2022/02/10 23:23:38;;;;;;;13.50;12.10;;;12.50;99.90;;;;;;5085737;28;20451;-61
2022/02/10 23:26:11;;;;;;;12.60;11.37;;;12.40;99.90;;;;;;5080785;28;20455;-62
2022/02/10 23:28:46;;;;;;;13.43;11.97;;;12.30;99.90;;;;;;5092231;28;20505;-62
2022/02/10 23:31:20;;;;;;;10.47;9.50;;;12.30;99.90;;;;;;5083423;28;20448;-63
2022/02/10 23:33:53;;;;;;;12.30;11.17;;;12.30;99.90;;;;;;5086546;28;20455;-62
2022/02/10 23:39:18;;;;;;;10.00;8.83;;;12.20;99.90;;;;;;5081087;28;20471;-62
2022/02/10 23:44:50;;;;;;;11.80;9.83;;;12.10;99.90;;;;;;5085836;28;20450;-62
2022/02/10 23:47:23;;;;;;;10.30;9.30;;;12.10;99.90;;;;;;5084926;28;20451;-61
2022/02/10 23:49:55;;;;;;;9.70;8.63;;;12.00;99.90;;;;;;5088343;28;20471;-61
2022/02/10 23:52:26;;;;;;;12.00;10.87;;;12.00;99.90;;;;;;5082762;28;20444;-61
2022/02/10 23:55:04;;;;;;;22.60;10.70;;;12.00;99.90;;;;;;5080515;28;20451;-62
2022/02/10 23:57:45;;;;;;;11.70;10.50;;;12.10;99.90;;;;;;5082224;28;20875;-61
